עמוד ראשי
METAR-TAF:

METAR-TAF

שדות תעופה :

Kivalina, אלסקה, ארצות הברית

קו רוחב: 67-44N, קו אורך: 164-33W, גובה: 4מטר

תצפית מזג אוויר נוכחית

הדו"ח נערך לפני 16דקות, בשעה 19:53 UTC
רוח 7קשר מכיוון מערב
טמפרטורת 1 צלסיוס
לחות 93%
לחץ 1016 hPa
ראות: 4.8קילומטר
מעונן בגובה 200רגל
אד

METAR: PAVL 171953Z AUTO 26007KT 3SM BR OVC002 01/00 A2999 RMK AO2 SLP156 T00110000 TSNO $

זמן: 12:09 (20:09 UTC)


TAF: חסר

תצפיות ותחזיות מזג אוויר לגבי יותר מ- 4,000 שדות תעופה ברחבי העולם. דוחות METAR ו- TAF.

התחנות הזמינות מסומנות בנקודות צהובות ואדומות על גבי המפה.

העבר את העכבר לנקודה הצבעונית על מנת לראות את שם התחנה.

לאחר מכן, לחץ כדי לראות את תוכן ואת תחזיות מזג האוויר.

כדי לשנות את המפה: לחץ על הכפתורים הירוקים עם הפלוס השחור כדי להתקרב; על הכפתור הירוק עם המקף כדי להתרחק; או בחיצים הירוקים למפות סמוכות.


METAR-TAF: